createdAt,value
2022-10-22T00:00:43.632Z,16.55
2022-10-22T00:03:10.316Z,16.49
2022-10-22T00:05:37.027Z,16.57
2022-10-22T00:08:03.703Z,16.29
2022-10-22T00:10:30.404Z,16.56
2022-10-22T00:12:57.007Z,16.43
2022-10-22T00:15:27.049Z,16.19
2022-10-22T00:17:56.701Z,16.27
2022-10-22T00:20:25.570Z,16.50
2022-10-22T00:25:18.856Z,16.41
2022-10-22T00:27:45.486Z,16.65
2022-10-22T00:30:12.809Z,16.57
2022-10-22T00:32:39.698Z,16.58
2022-10-22T00:35:06.923Z,16.40
2022-10-22T00:37:33.544Z,16.53
2022-10-22T00:40:00.188Z,16.52
2022-10-22T00:42:30.387Z,16.29
2022-10-22T00:45:03.113Z,16.52
2022-10-22T00:47:39.073Z,16.50
2022-10-22T00:50:09.724Z,16.33
2022-10-22T00:52:36.807Z,16.37
2022-10-22T00:55:04.354Z,16.48
2022-10-22T00:57:31.057Z,16.41
2022-10-22T00:59:58.452Z,16.61
2022-10-22T01:02:27.677Z,16.37
2022-10-22T01:04:54.278Z,16.38
2022-10-22T01:07:22.854Z,16.15
2022-10-22T01:10:12.022Z,16.34
2022-10-22T01:13:16.950Z,16.44
2022-10-22T01:16:02.273Z,16.42
2022-10-22T01:19:06.791Z,16.41
2022-10-22T01:21:42.052Z,16.26
2022-10-22T01:24:20.864Z,16.42
2022-10-22T01:27:03.931Z,16.38
2022-10-22T01:29:35.070Z,16.66
2022-10-22T01:32:07.294Z,16.63
2022-10-22T01:34:35.120Z,16.72
2022-10-22T01:37:03.119Z,16.47
2022-10-22T01:39:36.870Z,16.35
2022-10-22T01:42:04.279Z,16.18
2022-10-22T01:44:33.841Z,16.24
2022-10-22T01:47:31.481Z,16.33
2022-10-22T01:50:10.346Z,16.01
2022-10-22T01:52:57.101Z,15.97
2022-10-22T01:55:45.252Z,16.14
2022-10-22T01:58:23.927Z,15.88
2022-10-22T02:01:22.641Z,15.68
2022-10-22T02:04:10.451Z,15.72
2022-10-22T02:06:40.953Z,15.53
2022-10-22T02:09:09.438Z,15.83
2022-10-22T02:11:36.448Z,15.90
2022-10-22T02:14:05.348Z,16.10
2022-10-22T02:16:38.630Z,15.98
2022-10-22T02:19:14.583Z,15.90
2022-10-22T02:21:41.322Z,15.69
2022-10-22T02:24:08.144Z,15.90
2022-10-22T02:26:51.440Z,15.49
2022-10-22T02:29:33.297Z,15.98
2022-10-22T02:32:05.956Z,15.99
2022-10-22T02:34:35.341Z,15.67
2022-10-22T02:37:04.257Z,15.42
2022-10-22T02:39:36.234Z,15.39
2022-10-22T02:42:04.090Z,15.81
2022-10-22T02:44:33.423Z,15.72
2022-10-22T02:47:00.478Z,15.57
2022-10-22T02:49:28.220Z,15.58
2022-10-22T02:51:54.762Z,15.57
2022-10-22T02:54:21.370Z,15.62
2022-10-22T02:56:47.923Z,15.74
2022-10-22T02:59:14.518Z,15.60
2022-10-22T03:01:41.173Z,15.46
2022-10-22T03:04:07.788Z,15.67
2022-10-22T03:06:37.463Z,15.68
2022-10-22T03:09:07.064Z,15.72
2022-10-22T03:11:36.525Z,15.68
2022-10-22T03:14:06.512Z,15.92
2022-10-22T03:16:35.042Z,15.64
2022-10-22T03:19:04.066Z,15.69
2022-10-22T03:21:53.234Z,15.71
2022-10-22T03:24:24.106Z,15.76
2022-10-22T03:26:52.211Z,15.72
2022-10-22T03:29:22.172Z,15.58
2022-10-22T03:31:48.757Z,15.34
2022-10-22T03:34:15.945Z,15.29
2022-10-22T03:36:42.581Z,15.48
2022-10-22T03:39:12.732Z,15.32
2022-10-22T03:41:39.546Z,15.41
2022-10-22T03:44:09.653Z,15.39
2022-10-22T03:46:39.165Z,15.31
2022-10-22T03:49:08.874Z,15.29
2022-10-22T03:51:38.699Z,15.06
2022-10-22T03:54:08.339Z,14.94
2022-10-22T03:56:38.415Z,15.15
2022-10-22T03:59:08.322Z,14.94
2022-10-22T04:01:37.566Z,14.99
2022-10-22T04:04:04.179Z,14.89
2022-10-22T04:06:31.028Z,14.80
2022-10-22T04:08:57.750Z,14.79
2022-10-22T04:11:24.369Z,14.83
2022-10-22T04:13:51.000Z,14.57
2022-10-22T04:16:20.442Z,14.82
2022-10-22T04:18:49.132Z,14.68
2022-10-22T04:21:19.787Z,14.80
2022-10-22T04:23:51.280Z,14.96
2022-10-22T04:26:18.928Z,14.79
2022-10-22T04:28:46.520Z,14.68
2022-10-22T04:31:16.608Z,15.03
2022-10-22T04:33:43.369Z,14.87
2022-10-22T04:36:12.023Z,14.71
2022-10-22T04:38:43.070Z,14.53
2022-10-22T04:41:19.683Z,14.41
2022-10-22T04:43:46.888Z,14.36
2022-10-22T04:46:15.925Z,14.37
2022-10-22T04:48:44.632Z,14.49
2022-10-22T04:51:16.735Z,14.48
2022-10-22T04:53:44.753Z,14.54
2022-10-22T04:56:21.781Z,14.74
2022-10-22T04:58:49.855Z,14.69
2022-10-22T05:01:22.092Z,14.76
2022-10-22T05:03:50.497Z,15.01
2022-10-22T05:06:17.337Z,14.99
2022-10-22T05:08:44.521Z,14.92
2022-10-22T05:11:20.052Z,14.99
2022-10-22T05:13:47.058Z,14.62
2022-10-22T05:16:14.278Z,14.45
2022-10-22T05:18:45.506Z,14.50
2022-10-22T05:21:17.730Z,14.52
2022-10-22T05:23:45.783Z,14.60
2022-10-22T05:26:19.066Z,14.70
2022-10-22T05:28:46.987Z,14.77
2022-10-22T05:31:14.327Z,14.84
2022-10-22T05:33:42.993Z,14.43
2022-10-22T05:36:13.515Z,14.34
2022-10-22T05:38:42.774Z,14.37
2022-10-22T05:41:24.125Z,14.12
2022-10-22T05:43:51.206Z,13.98
2022-10-22T05:46:22.905Z,13.76
2022-10-22T05:48:58.351Z,13.57
2022-10-22T05:51:26.397Z,13.47
2022-10-22T05:53:59.427Z,13.40
2022-10-22T05:56:28.089Z,13.47
2022-10-22T05:58:55.006Z,13.68
2022-10-22T06:01:27.480Z,13.59
2022-10-22T06:03:56.400Z,13.50
2022-10-22T06:06:34.750Z,13.62
2022-10-22T06:09:05.965Z,13.59
2022-10-22T06:11:35.099Z,13.93
2022-10-22T06:14:02.061Z,14.18
2022-10-22T06:16:30.438Z,14.43
2022-10-22T06:19:00.040Z,14.50
2022-10-22T06:21:26.550Z,14.37
2022-10-22T06:23:55.291Z,14.21
2022-10-22T06:26:21.766Z,14.33
2022-10-22T06:28:48.322Z,14.27
2022-10-22T06:31:14.976Z,14.17
2022-10-22T06:33:45.028Z,14.58
2022-10-22T06:36:19.020Z,14.54
2022-10-22T06:38:45.806Z,14.42
2022-10-22T06:41:15.655Z,14.65
2022-10-22T06:43:47.094Z,14.45
2022-10-22T06:46:18.993Z,14.34
2022-10-22T06:48:57.225Z,14.45
2022-10-22T06:51:24.312Z,14.53
2022-10-22T06:53:51.055Z,14.61
2022-10-22T06:56:20.706Z,14.56
2022-10-22T06:58:51.115Z,14.65
2022-10-22T07:01:19.973Z,14.61
2022-10-22T07:03:46.563Z,14.63
2022-10-22T07:06:14.750Z,14.71
2022-10-22T07:08:42.629Z,14.88
2022-10-22T07:11:18.134Z,14.96
2022-10-22T07:13:45.766Z,15.38
2022-10-22T07:16:12.781Z,16.07
2022-10-22T07:18:43.149Z,16.82
2022-10-22T07:21:14.704Z,17.36
2022-10-22T07:23:44.680Z,18.16
2022-10-22T07:26:14.650Z,18.77
2022-10-22T07:28:44.235Z,19.24
2022-10-22T07:31:15.285Z,19.61
2022-10-22T07:33:41.914Z,19.71
2022-10-22T07:36:11.976Z,19.83
2022-10-22T07:38:40.628Z,19.88
2022-10-22T07:41:07.144Z,20.12
2022-10-22T07:43:33.692Z,20.35
2022-10-22T07:46:00.465Z,20.42
2022-10-22T07:48:32.965Z,20.65
2022-10-22T07:50:59.567Z,21.11
2022-10-22T07:53:32.851Z,21.50
2022-10-22T07:55:59.607Z,21.75
2022-10-22T07:58:26.403Z,21.72
2022-10-22T08:00:57.015Z,21.87
2022-10-22T08:03:23.632Z,21.46
2022-10-22T08:05:51.724Z,21.41
2022-10-22T08:08:19.566Z,20.81
2022-10-22T08:10:47.737Z,20.61
2022-10-22T08:13:15.053Z,20.31
2022-10-22T08:15:50.466Z,20.02
2022-10-22T08:18:19.013Z,19.87
2022-10-22T08:20:45.960Z,19.79
2022-10-22T08:23:13.513Z,19.87
2022-10-22T08:25:42.472Z,20.08
2022-10-22T08:28:12.777Z,20.45
2022-10-22T08:30:45.082Z,20.79
2022-10-22T08:33:15.236Z,21.05
2022-10-22T08:35:49.863Z,21.46
2022-10-22T08:38:16.959Z,21.47
2022-10-22T08:43:38.695Z,21.57
2022-10-22T08:46:40.252Z,21.19
2022-10-22T08:49:17.864Z,20.63
2022-10-22T08:51:45.239Z,20.82
2022-10-22T08:54:41.958Z,21.59
2022-10-22T08:57:09.011Z,22.50
2022-10-22T09:00:02.126Z,22.27
2022-10-22T09:02:38.525Z,22.57
2022-10-22T09:05:27.577Z,23.28
2022-10-22T09:07:55.483Z,23.68
2022-10-22T09:10:27.477Z,24.18
2022-10-22T09:12:54.356Z,24.37
2022-10-22T09:15:21.886Z,24.43
2022-10-22T09:18:14.311Z,24.90
2022-10-22T09:20:56.766Z,25.15
2022-10-22T09:23:29.104Z,25.42
2022-10-22T09:25:57.087Z,25.35
2022-10-22T09:28:24.213Z,25.31
2022-10-22T09:30:51.124Z,25.63
2022-10-22T09:33:27.637Z,25.85
2022-10-22T09:35:57.532Z,26.19
2022-10-22T09:38:32.221Z,26.51
2022-10-22T09:41:00.943Z,26.78
2022-10-22T09:43:27.432Z,27.01
2022-10-22T09:46:03.084Z,27.01
2022-10-22T09:48:36.577Z,26.99
2022-10-22T09:51:18.161Z,27.23
2022-10-22T09:53:56.185Z,26.63
2022-10-22T09:56:37.956Z,26.63
2022-10-22T09:59:04.946Z,26.46
2022-10-22T10:01:35.099Z,25.29
2022-10-22T10:04:17.467Z,25.16
2022-10-22T10:06:45.125Z,25.32
2022-10-22T10:09:16.939Z,25.76
2022-10-22T10:11:51.961Z,25.92
2022-10-22T10:14:30.834Z,26.51
2022-10-22T10:17:12.131Z,26.96
2022-10-22T10:20:15.132Z,26.81
2022-10-22T10:23:03.114Z,26.88
2022-10-22T10:26:14.486Z,26.83
2022-10-22T10:28:52.073Z,25.94
2022-10-22T10:31:43.276Z,26.24
2022-10-22T10:34:43.628Z,26.58
2022-10-22T10:37:26.785Z,26.38
2022-10-22T10:40:05.102Z,26.44
2022-10-22T10:42:44.912Z,25.92
2022-10-22T10:45:29.852Z,26.48
2022-10-22T10:48:12.719Z,26.59
2022-10-22T10:50:54.230Z,26.65
2022-10-22T10:53:43.816Z,27.05
2022-10-22T10:56:19.645Z,27.11
2022-10-22T10:59:01.581Z,27.67
2022-10-22T11:01:42.226Z,27.59
2022-10-22T11:04:31.610Z,27.87
2022-10-22T11:07:11.148Z,27.77
2022-10-22T11:09:50.907Z,26.67
2022-10-22T11:12:23.818Z,26.47
2022-10-22T11:15:12.784Z,27.31
2022-10-22T11:17:46.245Z,28.02
2022-10-22T11:20:28.078Z,27.66
2022-10-22T11:23:22.187Z,27.88
2022-10-22T11:25:50.556Z,27.66
2022-10-22T11:28:26.034Z,27.10
2022-10-22T11:31:00.320Z,27.44
2022-10-22T11:33:32.311Z,27.57
2022-10-22T11:36:01.674Z,27.58
2022-10-22T11:38:30.689Z,27.55
2022-10-22T11:41:07.258Z,28.37
2022-10-22T11:43:55.766Z,29.17
2022-10-22T11:46:22.608Z,29.61
2022-10-22T11:49:26.600Z,29.74
2022-10-22T11:52:23.407Z,29.22
2022-10-22T11:54:54.593Z,28.65
2022-10-22T11:57:26.987Z,28.33
2022-10-22T11:59:58.533Z,28.32
2022-10-22T12:02:27.933Z,28.24
2022-10-22T12:05:22.485Z,27.73
2022-10-22T12:07:57.107Z,27.80
2022-10-22T12:10:34.447Z,28.51
2022-10-22T12:13:22.935Z,28.85
2022-10-22T12:15:53.353Z,28.75
2022-10-22T12:18:25.977Z,28.89
2022-10-22T12:20:55.381Z,29.31
2022-10-22T12:23:28.718Z,28.63
2022-10-22T12:25:55.604Z,28.78
2022-10-22T12:28:22.878Z,28.97
2022-10-22T12:30:49.701Z,29.03
2022-10-22T12:33:23.496Z,29.26
2022-10-22T12:35:54.052Z,29.51
2022-10-22T12:38:23.474Z,29.77
2022-10-22T12:40:51.486Z,30.15
2022-10-22T12:43:23.868Z,30.16
2022-10-22T12:45:51.426Z,29.96
2022-10-22T12:48:22.544Z,30.41
2022-10-22T12:50:52.528Z,30.02
2022-10-22T12:53:24.012Z,29.75
2022-10-22T12:55:53.168Z,29.89
2022-10-22T12:58:25.671Z,28.92
2022-10-22T13:00:57.513Z,28.64
2022-10-22T13:03:28.463Z,29.17
2022-10-22T13:05:55.055Z,29.10
2022-10-22T13:08:26.792Z,28.30
2022-10-22T13:10:55.436Z,27.93
2022-10-22T13:13:34.018Z,28.20
2022-10-22T13:16:33.355Z,28.06
2022-10-22T13:19:00.005Z,28.43
2022-10-22T13:21:33.919Z,28.30
2022-10-22T13:24:02.915Z,28.22
2022-10-22T13:26:37.681Z,27.65
2022-10-22T13:29:12.074Z,27.40
2022-10-22T13:31:50.123Z,27.46
2022-10-22T13:34:25.678Z,27.69
2022-10-22T13:36:52.615Z,28.11
2022-10-22T13:39:24.204Z,28.03
2022-10-22T13:41:51.795Z,27.64
2022-10-22T13:44:19.857Z,27.31
2022-10-22T13:46:49.571Z,27.51
2022-10-22T13:49:23.409Z,27.76
2022-10-22T13:51:51.336Z,28.42
2022-10-22T13:54:23.776Z,28.70
2022-10-22T13:56:50.336Z,28.85
2022-10-22T13:59:22.818Z,28.29
2022-10-22T14:01:51.011Z,27.97
2022-10-22T14:04:18.181Z,27.90
2022-10-22T14:06:45.304Z,27.67
2022-10-22T14:09:16.153Z,27.58
2022-10-22T14:11:43.539Z,27.04
2022-10-22T14:14:14.235Z,26.98
2022-10-22T14:16:41.032Z,26.53
2022-10-22T14:19:14.517Z,26.44
2022-10-22T14:21:41.020Z,26.49
2022-10-22T14:24:12.921Z,26.52
2022-10-22T14:26:40.083Z,26.07
2022-10-22T14:29:10.980Z,26.28
2022-10-22T14:31:43.394Z,26.40
2022-10-22T14:34:13.174Z,26.36
2022-10-22T14:36:39.713Z,26.19
2022-10-22T14:39:06.316Z,26.24
2022-10-22T14:41:35.205Z,26.69
2022-10-22T14:44:01.788Z,26.94
2022-10-22T14:46:28.501Z,27.00
2022-10-22T14:48:55.034Z,26.75
2022-10-22T14:51:22.062Z,26.71
2022-10-22T14:53:51.547Z,26.54
2022-10-22T14:56:24.636Z,26.35
2022-10-22T14:58:51.484Z,26.35
2022-10-22T15:01:22.017Z,26.04
2022-10-22T15:03:51.707Z,25.96
2022-10-22T15:06:21.164Z,25.75
2022-10-22T15:08:50.885Z,25.73
2022-10-22T15:11:50.491Z,25.54
2022-10-22T15:14:19.452Z,25.43
2022-10-22T15:16:46.031Z,25.35
2022-10-22T15:19:12.633Z,25.37
2022-10-22T15:21:39.558Z,25.69
2022-10-22T15:24:07.312Z,25.91
2022-10-22T15:26:34.348Z,26.03
2022-10-22T15:29:03.746Z,26.13
2022-10-22T15:31:52.128Z,25.96
2022-10-22T15:34:23.492Z,25.95
2022-10-22T15:36:58.451Z,25.71
2022-10-22T15:39:25.758Z,25.50
2022-10-22T15:41:53.121Z,25.35
2022-10-22T15:44:28.776Z,25.17
2022-10-22T15:46:56.041Z,24.90
2022-10-22T15:49:27.353Z,24.71
2022-10-22T15:51:54.747Z,24.40
2022-10-22T15:54:28.974Z,24.09
2022-10-22T15:56:59.999Z,23.44
2022-10-22T15:59:26.594Z,23.45
2022-10-22T16:01:53.199Z,23.28
2022-10-22T16:04:21.964Z,23.02
2022-10-22T16:06:54.848Z,22.93
2022-10-22T16:09:27.397Z,22.83
2022-10-22T16:11:55.143Z,22.59
2022-10-22T16:14:24.103Z,22.05
2022-10-22T16:16:52.940Z,22.13
2022-10-22T16:19:24.267Z,22.06
2022-10-22T16:21:55.439Z,22.02
2022-10-22T16:24:24.865Z,21.71
2022-10-22T16:26:54.152Z,21.73
2022-10-22T16:29:23.075Z,21.81
2022-10-22T16:31:49.599Z,21.50
2022-10-22T16:34:16.161Z,21.31
2022-10-22T16:36:44.158Z,21.07
2022-10-22T16:39:10.725Z,20.77
2022-10-22T16:41:37.246Z,20.86
2022-10-22T16:44:07.765Z,20.87
2022-10-22T16:46:38.334Z,20.80
2022-10-22T16:49:06.191Z,20.64
2022-10-22T16:51:33.342Z,20.56
2022-10-22T16:53:59.904Z,20.50
2022-10-22T16:56:26.955Z,20.60
2022-10-22T16:58:57.621Z,20.58
2022-10-22T17:01:29.748Z,20.53
2022-10-22T17:03:59.040Z,20.40
2022-10-22T17:06:26.073Z,20.40
2022-10-22T17:08:55.637Z,20.40
2022-10-22T17:11:29.857Z,20.28
2022-10-22T17:13:56.399Z,20.06
2022-10-22T17:16:27.771Z,19.87
2022-10-22T17:18:58.308Z,19.92
2022-10-22T17:21:28.002Z,19.95
2022-10-22T17:23:58.018Z,19.97
2022-10-22T17:26:27.993Z,19.89
2022-10-22T17:28:57.630Z,19.56
2022-10-22T17:31:28.126Z,19.56
2022-10-22T17:33:57.724Z,19.82
2022-10-22T17:36:31.926Z,19.79
2022-10-22T17:39:05.399Z,19.67
2022-10-22T17:41:34.760Z,19.71
2022-10-22T17:44:06.241Z,19.53
2022-10-22T17:46:33.027Z,19.50
2022-10-22T17:49:03.829Z,19.31
2022-10-22T17:51:31.314Z,19.36
2022-10-22T17:53:58.030Z,19.54
2022-10-22T17:56:30.218Z,19.25
2022-10-22T17:59:02.731Z,19.12
2022-10-22T18:01:31.583Z,19.34
2022-10-22T18:04:07.814Z,19.00
2022-10-22T18:06:35.156Z,19.15
2022-10-22T18:09:06.379Z,19.16
2022-10-22T18:11:34.438Z,19.11
2022-10-22T18:14:01.073Z,18.99
2022-10-22T18:16:28.090Z,19.14
2022-10-22T18:18:57.536Z,19.18
2022-10-22T18:21:29.417Z,19.12
2022-10-22T18:23:59.339Z,19.00
2022-10-22T18:26:30.039Z,19.02
2022-10-22T18:29:00.430Z,19.02
2022-10-22T18:31:30.464Z,18.94
2022-10-22T18:34:00.071Z,18.79
2022-10-22T18:36:30.094Z,18.76
2022-10-22T18:38:59.581Z,18.77
2022-10-22T18:41:28.968Z,18.63
2022-10-22T18:43:59.075Z,18.43
2022-10-22T18:46:39.712Z,18.27
2022-10-22T18:49:10.442Z,18.04
2022-10-22T18:51:40.078Z,17.98
2022-10-22T18:54:22.221Z,18.07
2022-10-22T18:56:50.144Z,18.05
2022-10-22T18:59:22.389Z,17.90
2022-10-22T19:02:00.044Z,17.71
2022-10-22T19:04:36.862Z,18.12
2022-10-22T19:09:35.787Z,18.62
2022-10-22T19:12:02.652Z,18.71
2022-10-22T19:14:32.725Z,18.57
2022-10-22T19:17:02.601Z,18.52
2022-10-22T19:19:32.359Z,18.54
2022-10-22T19:22:02.080Z,18.61
2022-10-22T19:24:31.702Z,18.38
2022-10-22T19:27:00.712Z,18.46
2022-10-22T19:29:33.379Z,18.75
2022-10-22T19:32:03.104Z,18.96
2022-10-22T19:34:33.528Z,18.85
2022-10-22T19:37:04.128Z,18.90
2022-10-22T19:39:30.661Z,19.00
2022-10-22T19:42:00.073Z,19.12
2022-10-22T19:44:26.669Z,18.80
2022-10-22T19:46:53.308Z,18.95
2022-10-22T19:49:22.164Z,18.76
2022-10-22T19:51:49.672Z,18.94
2022-10-22T19:54:18.596Z,18.82
2022-10-22T19:56:46.430Z,18.72
2022-10-22T19:59:15.219Z,18.93
2022-10-22T20:01:41.860Z,18.88
2022-10-22T20:04:14.216Z,18.70
2022-10-22T20:06:40.762Z,18.66
2022-10-22T20:09:07.516Z,18.56
2022-10-22T20:11:34.325Z,18.47
2022-10-22T20:14:01.092Z,18.35
2022-10-22T20:16:32.414Z,18.63
2022-10-22T20:19:04.759Z,18.41
2022-10-22T20:21:34.832Z,18.54
2022-10-22T20:24:02.410Z,18.40
2022-10-22T20:26:32.325Z,18.52
2022-10-22T20:29:01.670Z,18.50
2022-10-22T20:31:31.378Z,18.53
2022-10-22T20:34:04.188Z,18.51
2022-10-22T20:36:33.756Z,18.50
2022-10-22T20:39:08.647Z,18.52
2022-10-22T20:41:38.189Z,18.62
2022-10-22T20:44:09.736Z,18.37
2022-10-22T20:46:36.541Z,18.55
2022-10-22T20:49:09.875Z,18.33
2022-10-22T20:51:37.260Z,18.68
2022-10-22T20:54:06.292Z,18.68
2022-10-22T20:56:35.225Z,18.63
2022-10-22T20:59:05.719Z,18.53
2022-10-22T21:01:50.391Z,18.54
2022-10-22T21:04:18.504Z,18.36
2022-10-22T21:06:45.354Z,18.44
2022-10-22T21:09:13.812Z,18.43
2022-10-22T21:11:42.781Z,18.35
2022-10-22T21:14:11.177Z,18.53
2022-10-22T21:16:41.187Z,18.48
2022-10-22T21:19:07.777Z,18.38
2022-10-22T21:21:37.760Z,18.59
2022-10-22T21:24:07.890Z,18.28
2022-10-22T21:26:42.940Z,18.06
2022-10-22T21:29:12.262Z,18.15
2022-10-22T21:31:40.447Z,18.21
2022-10-22T21:34:07.378Z,18.29
2022-10-22T21:36:37.001Z,18.10
2022-10-22T21:39:07.259Z,18.37
2022-10-22T21:41:38.328Z,18.47
2022-10-22T21:44:07.880Z,18.51
2022-10-22T21:46:37.453Z,18.22
2022-10-22T21:49:07.956Z,18.23
2022-10-22T21:51:38.384Z,18.37
2022-10-22T21:54:08.191Z,18.36
2022-10-22T21:56:36.782Z,18.25
2022-10-22T21:59:08.658Z,18.28
2022-10-22T22:01:38.471Z,18.34
2022-10-22T22:04:06.662Z,18.22
2022-10-22T22:06:36.246Z,18.28
2022-10-22T22:09:07.791Z,18.12
2022-10-22T22:11:37.600Z,17.94
2022-10-22T22:14:04.218Z,18.22
2022-10-22T22:16:33.331Z,18.07
2022-10-22T22:21:30.805Z,18.13
2022-10-22T22:23:58.180Z,18.01
2022-10-22T22:26:29.643Z,17.87
2022-10-22T22:28:58.547Z,18.21
2022-10-22T22:31:28.205Z,17.99
2022-10-22T22:34:05.822Z,18.19
2022-10-22T22:36:38.771Z,18.20
2022-10-22T22:39:08.996Z,18.17
2022-10-22T22:41:35.542Z,18.02
2022-10-22T22:44:02.305Z,18.13
2022-10-22T22:46:29.496Z,17.93
2022-10-22T22:48:56.157Z,18.01
2022-10-22T22:51:23.110Z,18.00
2022-10-22T22:53:50.025Z,17.89
2022-10-22T22:56:22.829Z,17.96
2022-10-22T22:58:49.539Z,18.13
2022-10-22T23:01:16.288Z,18.08
2022-10-22T23:03:44.444Z,18.10
2022-10-22T23:06:11.833Z,18.00
2022-10-22T23:08:42.263Z,18.12
2022-10-22T23:11:12.371Z,18.20
2022-10-22T23:13:42.018Z,18.07
2022-10-22T23:16:17.860Z,17.85
2022-10-22T23:18:46.280Z,17.85
2022-10-22T23:21:17.162Z,18.08
2022-10-22T23:23:49.405Z,18.11
2022-10-22T23:26:19.626Z,18.10
2022-10-22T23:28:46.870Z,18.13
2022-10-22T23:31:15.426Z,17.96
2022-10-22T23:33:45.752Z,18.01
2022-10-22T23:36:12.830Z,17.94
2022-10-22T23:38:42.380Z,18.16
2022-10-22T23:41:12.804Z,18.24
2022-10-22T23:43:41.535Z,17.94
2022-10-22T23:46:11.675Z,18.16
2022-10-22T23:48:39.362Z,18.14
2022-10-22T23:51:17.390Z,17.98
2022-10-22T23:53:45.141Z,17.88
2022-10-22T23:56:17.463Z,18.09
2022-10-22T23:58:44.850Z,18.11
